Estación Meteorológica Peña el Pijo (Robertgarden) [ 12/10/18 11:29:05 CET ]

Fecha Hora Presion(HPa) Temp (°C) Humedad % Rocio (°C) Viento ( m/s) Direccion Lluvia 1Hora(mm) Lluvia 24H(mm) LLuvia Total(mm)
2018-Jun-20 01:01:50 1013.600 15.6 66 9.3         266.25
2018-Jun-20 02:01:46 1013.500 13.9 71 8.7         266.25
2018-Jun-20 03:02:04 1013.300 12.9 75 8.5         266.25
2018-Jun-20 04:02:12 1012.900 11.9 78 8.0         266.25
2018-Jun-20 05:05:10 1012.700 11.3 79 7.8         266.25
2018-Jun-20 06:01:44 1012.400 10.7 81 7.6         266.25
2018-Jun-20 07:01:45 1012.700 9.9 82 6.9         266.25
2018-Jun-20 08:01:43 1012.600 12.7 84 10.0         266.25
2018-Jun-20 09:01:45 1012.700 18.5 68 12.5         266.25
2018-Jun-20 10:01:35 1012.400 23.4 51 12.7         266.25
2018-Jun-20 11:01:47 1012.000 27.4 36 10.9         266.25
2018-Jun-20 12:01:40 1012.300 29.9 28 9.3         266.25
2018-Jun-20 13:01:37 1012.000 29.5 27 8.4 0.6 SSW     266.25
2018-Jun-20 14:01:46 1012.000 30.3 27 9.0         266.25
2018-Jun-20 15:01:53 1011.300 33.2 25 10.3         266.25
2018-Jun-20 16:01:46 1010.700 33.4 24 9.9 1.4 SSW     266.25
2018-Jun-20 17:01:49 1010.600 32.4 24 9.0 0.7 SSW     266.25
2018-Jun-20 18:01:31 1010.500 30.3 27 9.0         266.25
2018-Jun-20 19:01:45 1010.400 29.8 30 10.4 1.2 SSW     266.25
2018-Jun-20 20:02:03 1010.700 25.9 36 9.6 1.9 S     266.25
2018-Jun-20 21:01:54 1011.400 22.8 43 9.5         266.25
2018-Jun-20 22:01:42 1011.900 20.5 47 8.8         266.25
2018-Jun-20 23:01:45 1012.400 18.3 52 8.2         266.25

Temperatura Máxima:33°    Temperatura Mínima:
Presión Máxima:1013.600 Hpa    Presión Mínima:1010.400 Hpa


Volver